createdAt,value
2023-03-17T00:01:16.560Z,4.07
2023-03-17T00:03:45.764Z,3.25
2023-03-17T00:06:18.547Z,4.53
2023-03-17T00:08:46.579Z,3.88
2023-03-17T00:11:17.855Z,8.48
2023-03-17T00:13:46.365Z,9.52
2023-03-17T00:16:19.291Z,7.70
2023-03-17T00:18:46.732Z,7.15
2023-03-17T00:21:15.249Z,4.43
2023-03-17T00:23:44.951Z,16.13
2023-03-17T00:26:12.548Z,11.20
2023-03-17T00:28:39.554Z,7.30
2023-03-17T00:31:21.384Z,7.40
2023-03-17T00:33:49.120Z,12.00
2023-03-17T00:36:18.746Z,9.40
2023-03-17T00:38:46.275Z,13.55
2023-03-17T00:41:13.392Z,6.85
2023-03-17T00:43:41.197Z,2.45
2023-03-17T00:46:23.544Z,4.47
2023-03-17T00:48:50.383Z,3.63
2023-03-17T00:51:17.550Z,3.67
2023-03-17T00:53:44.675Z,7.70
2023-03-17T00:56:17.208Z,9.05
2023-03-17T00:58:44.136Z,5.97
2023-03-17T01:01:11.266Z,4.88
2023-03-17T01:03:38.959Z,6.50
2023-03-17T01:06:09.615Z,9.32
2023-03-17T01:08:36.860Z,7.32
2023-03-17T01:11:03.653Z,10.45
2023-03-17T01:13:30.292Z,7.05
2023-03-17T01:15:57.749Z,6.75
2023-03-17T01:18:24.794Z,4.22
2023-03-17T01:20:53.347Z,4.47
2023-03-17T01:23:20.336Z,5.90
2023-03-17T01:25:47.151Z,4.72
2023-03-17T01:28:16.826Z,3.40
2023-03-17T01:30:43.973Z,3.25
2023-03-17T01:33:13.139Z,2.20
2023-03-17T01:35:41.579Z,3.35
2023-03-17T01:38:08.805Z,2.67
2023-03-17T01:40:44.039Z,10.88
2023-03-17T01:43:10.760Z,8.70
2023-03-17T01:46:05.297Z,7.10
2023-03-17T01:48:35.637Z,11.73
2023-03-17T01:51:02.369Z,5.00
2023-03-17T01:53:29.378Z,5.55
2023-03-17T01:55:56.964Z,6.68
2023-03-17T01:58:24.335Z,3.35
2023-03-17T02:00:51.038Z,4.88
2023-03-17T02:03:19.035Z,6.90
2023-03-17T02:05:46.677Z,9.82
2023-03-17T02:08:15.458Z,4.30
2023-03-17T02:10:42.734Z,2.22
2023-03-17T02:13:11.797Z,2.80
2023-03-17T02:15:42.907Z,3.33
2023-03-17T02:18:12.704Z,5.25
2023-03-17T02:20:39.348Z,2.25
2023-03-17T02:23:07.092Z,4.60
2023-03-17T02:25:35.761Z,3.90
2023-03-17T02:28:10.943Z,5.57
2023-03-17T02:30:37.702Z,4.00
2023-03-17T02:33:04.469Z,5.07
2023-03-17T02:35:31.642Z,4.90
2023-03-17T02:37:58.604Z,3.92
2023-03-17T02:40:25.259Z,8.70
2023-03-17T02:42:52.093Z,4.53
2023-03-17T02:45:18.865Z,5.60
2023-03-17T02:47:46.313Z,3.60
2023-03-17T02:50:19.695Z,3.88
2023-03-17T02:52:46.493Z,2.00
2023-03-17T02:55:13.489Z,3.55
2023-03-17T02:57:40.354Z,5.43
2023-03-17T03:00:10.565Z,5.40
2023-03-17T03:02:38.205Z,6.22
2023-03-17T03:05:05.867Z,6.68
2023-03-17T03:07:32.777Z,6.60
2023-03-17T03:09:59.590Z,5.13
2023-03-17T03:12:26.463Z,8.32
2023-03-17T03:14:53.061Z,9.38
2023-03-17T03:17:21.131Z,5.07
2023-03-17T03:19:49.216Z,5.35
2023-03-17T03:22:15.961Z,5.63
2023-03-17T03:24:42.671Z,4.18
2023-03-17T03:27:10.966Z,4.72
2023-03-17T03:29:38.454Z,3.47
2023-03-17T03:32:05.455Z,7.32
2023-03-17T03:34:32.098Z,4.00
2023-03-17T03:36:58.837Z,2.28
2023-03-17T03:39:25.931Z,4.68
2023-03-17T03:41:52.653Z,4.03
2023-03-17T03:44:19.308Z,6.10
2023-03-17T03:46:46.398Z,5.65
2023-03-17T03:49:13.084Z,3.92
2023-03-17T03:51:39.896Z,3.63
2023-03-17T03:54:07.291Z,3.88
2023-03-17T03:56:34.142Z,5.10
2023-03-17T03:59:01.184Z,4.32
2023-03-17T04:01:28.430Z,3.13
2023-03-17T04:03:55.037Z,4.57
2023-03-17T04:06:21.909Z,4.38
2023-03-17T04:08:48.572Z,5.82
2023-03-17T04:11:15.681Z,5.60
2023-03-17T04:13:42.339Z,4.20
2023-03-17T04:16:09.242Z,3.55
2023-03-17T04:18:36.388Z,4.03
2023-03-17T04:21:03.102Z,3.58
2023-03-17T04:23:31.529Z,4.82
2023-03-17T04:25:58.673Z,4.03
2023-03-17T04:28:26.059Z,3.50
2023-03-17T04:30:52.774Z,3.85
2023-03-17T04:33:20.483Z,3.58
2023-03-17T04:35:47.236Z,3.60
2023-03-17T04:38:14.245Z,7.68
2023-03-17T04:40:41.724Z,3.25
2023-03-17T04:43:09.594Z,5.22
2023-03-17T04:45:37.422Z,5.72
2023-03-17T04:48:04.520Z,6.72
2023-03-17T04:50:33.327Z,11.45
2023-03-17T04:53:00.440Z,7.60
2023-03-17T04:55:27.661Z,7.65
2023-03-17T04:57:54.476Z,18.67
2023-03-17T05:00:21.495Z,9.00
2023-03-17T05:02:48.227Z,4.93
2023-03-17T05:05:15.113Z,6.07
2023-03-17T05:07:42.084Z,7.53
2023-03-17T05:10:09.587Z,5.38
2023-03-17T05:12:36.244Z,5.03
2023-03-17T05:15:02.989Z,8.82
2023-03-17T05:17:29.642Z,7.63
2023-03-17T05:19:56.612Z,5.45
2023-03-17T05:22:23.317Z,13.65
2023-03-17T05:24:50.057Z,8.63
2023-03-17T05:27:16.855Z,5.55
2023-03-17T05:29:43.546Z,5.18
2023-03-17T05:32:10.434Z,3.85
2023-03-17T05:34:37.324Z,6.53
2023-03-17T05:37:04.066Z,13.27
2023-03-17T05:39:30.895Z,4.60
2023-03-17T05:41:57.841Z,5.32
2023-03-17T05:44:24.943Z,7.20
2023-03-17T05:46:51.753Z,6.28
2023-03-17T05:49:19.245Z,7.55
2023-03-17T05:51:45.820Z,7.25
2023-03-17T05:54:13.038Z,10.93
2023-03-17T05:56:40.508Z,4.88
2023-03-17T05:59:08.596Z,6.72
2023-03-17T06:01:35.888Z,6.28
2023-03-17T06:04:03.347Z,6.78
2023-03-17T06:06:29.963Z,5.40
2023-03-17T06:08:56.665Z,10.18
2023-03-17T06:11:23.364Z,9.85
2023-03-17T06:13:50.189Z,6.93
2023-03-17T06:16:16.906Z,6.93
2023-03-17T06:18:44.000Z,10.57
2023-03-17T06:21:10.968Z,7.55
2023-03-17T06:23:37.765Z,5.47
2023-03-17T06:26:04.654Z,4.53
2023-03-17T06:28:31.925Z,9.27
2023-03-17T06:30:58.689Z,7.68
2023-03-17T06:33:26.154Z,6.32
2023-03-17T06:35:53.457Z,9.98
2023-03-17T06:38:21.020Z,10.30
2023-03-17T06:40:48.011Z,9.70
2023-03-17T06:43:14.704Z,9.05
2023-03-17T06:45:41.868Z,9.00
2023-03-17T06:48:08.715Z,15.38
2023-03-17T06:50:35.535Z,7.53
2023-03-17T06:53:02.253Z,6.35
2023-03-17T06:55:29.320Z,8.30
2023-03-17T06:57:56.528Z,8.52
2023-03-17T07:00:23.910Z,8.60
2023-03-17T07:02:51.659Z,15.40
2023-03-17T07:05:18.825Z,11.70
2023-03-17T07:07:46.179Z,9.15
2023-03-17T07:10:17.429Z,6.18
2023-03-17T07:12:45.139Z,5.55
2023-03-17T07:15:12.632Z,8.45
2023-03-17T07:17:39.338Z,7.07
2023-03-17T07:20:06.768Z,6.30
2023-03-17T07:22:33.685Z,5.40
2023-03-17T07:25:00.629Z,9.48
2023-03-17T07:27:27.435Z,7.72
2023-03-17T07:29:54.240Z,5.35
2023-03-17T07:32:20.959Z,5.50
2023-03-17T07:34:47.851Z,7.70
2023-03-17T07:37:14.586Z,6.30
2023-03-17T07:39:41.396Z,5.78
2023-03-17T07:42:08.340Z,7.03
2023-03-17T07:44:35.103Z,8.70
2023-03-17T07:47:01.725Z,8.95
2023-03-17T07:49:40.885Z,8.60
2023-03-17T07:52:10.204Z,8.52
2023-03-17T07:54:38.092Z,7.60
2023-03-17T07:57:05.570Z,7.00
2023-03-17T07:59:32.800Z,8.05
2023-03-17T08:02:01.475Z,9.93
2023-03-17T08:04:28.794Z,9.52
2023-03-17T08:06:55.620Z,6.13
2023-03-17T08:09:22.491Z,7.93
2023-03-17T08:11:49.161Z,4.90
2023-03-17T08:14:15.837Z,8.88
2023-03-17T08:16:43.029Z,8.82
2023-03-17T08:19:10.846Z,6.15
2023-03-17T08:21:37.485Z,4.47
2023-03-17T08:24:05.486Z,5.90
2023-03-17T08:26:32.560Z,6.38
2023-03-17T08:28:59.429Z,7.00
2023-03-17T08:31:26.394Z,5.68
2023-03-17T08:33:54.218Z,6.25
2023-03-17T08:36:21.742Z,9.15
2023-03-17T08:38:48.638Z,6.32
2023-03-17T08:41:22.924Z,6.85
2023-03-17T08:43:50.963Z,9.98
2023-03-17T08:46:29.592Z,7.32
2023-03-17T08:48:58.140Z,8.40
2023-03-17T08:51:26.990Z,10.98
2023-03-17T08:53:54.593Z,8.40
2023-03-17T08:56:21.906Z,8.20
2023-03-17T08:58:49.412Z,8.35
2023-03-17T09:01:17.091Z,4.63
2023-03-17T09:03:44.291Z,7.82
2023-03-17T09:06:12.418Z,6.25
2023-03-17T09:08:44.682Z,9.00
2023-03-17T09:11:14.852Z,11.98
2023-03-17T09:13:41.682Z,7.35
2023-03-17T09:16:11.953Z,7.07
2023-03-17T09:18:39.207Z,9.38
2023-03-17T09:21:06.582Z,10.07
2023-03-17T09:23:33.874Z,8.20
2023-03-17T09:26:01.260Z,6.30
2023-03-17T09:28:29.215Z,12.70
2023-03-17T09:31:04.174Z,9.00
2023-03-17T09:33:31.102Z,9.20
2023-03-17T09:35:57.942Z,6.97
2023-03-17T09:38:25.980Z,7.45
2023-03-17T09:41:30.889Z,11.52
2023-03-17T09:44:35.233Z,9.68
2023-03-17T09:47:23.411Z,11.13
2023-03-17T09:49:53.427Z,5.18
2023-03-17T09:52:26.060Z,9.30
2023-03-17T09:54:52.796Z,9.75
2023-03-17T09:57:29.801Z,8.20
2023-03-17T10:00:06.640Z,5.72
2023-03-17T10:02:38.224Z,6.22
2023-03-17T10:05:11.787Z,7.43
2023-03-17T10:08:01.735Z,10.93
2023-03-17T10:10:40.632Z,9.10
2023-03-17T10:13:16.374Z,8.65
2023-03-17T10:15:49.509Z,4.15
2023-03-17T10:18:17.575Z,5.50
2023-03-17T10:21:10.667Z,7.18
2023-03-17T10:23:37.485Z,11.07
2023-03-17T10:26:26.196Z,6.05
2023-03-17T10:28:57.210Z,4.80
2023-03-17T10:31:30.009Z,4.85
2023-03-17T10:33:59.201Z,3.88
2023-03-17T10:36:38.055Z,6.00
2023-03-17T10:39:05.943Z,10.57
2023-03-17T10:41:39.024Z,5.80
2023-03-17T10:44:36.017Z,7.93
2023-03-17T10:47:03.095Z,8.65
2023-03-17T10:49:36.029Z,7.47
2023-03-17T10:52:08.020Z,6.15
2023-03-17T10:54:36.199Z,9.15
2023-03-17T10:57:07.144Z,8.90
2023-03-17T10:59:44.350Z,8.38
2023-03-17T11:02:33.181Z,15.88
2023-03-17T11:05:29.215Z,12.43
2023-03-17T11:08:21.844Z,8.85
2023-03-17T11:10:54.961Z,12.68
2023-03-17T11:13:22.028Z,26.55
2023-03-17T11:15:52.932Z,16.48
2023-03-17T11:18:33.431Z,9.40
2023-03-17T11:21:04.614Z,8.30
2023-03-17T11:23:37.611Z,10.55
2023-03-17T11:26:25.956Z,9.93
2023-03-17T11:29:11.550Z,23.83
2023-03-17T11:31:44.319Z,8.85
2023-03-17T11:34:20.058Z,12.05
2023-03-17T11:37:02.469Z,14.60
2023-03-17T11:39:39.457Z,13.32
2023-03-17T11:42:18.157Z,10.25
2023-03-17T11:45:06.472Z,8.38
2023-03-17T11:47:48.114Z,8.18
2023-03-17T11:50:34.791Z,14.00
2023-03-17T11:53:36.848Z,8.98
2023-03-17T11:56:13.831Z,8.00
2023-03-17T11:58:45.820Z,10.07
2023-03-17T12:01:21.639Z,6.22
2023-03-17T12:03:53.553Z,12.10
2023-03-17T12:06:30.654Z,9.82
2023-03-17T12:09:08.604Z,11.38
2023-03-17T12:11:38.164Z,8.45
2023-03-17T12:14:07.772Z,13.48
2023-03-17T12:17:01.382Z,8.13
2023-03-17T12:19:37.133Z,5.93
2023-03-17T12:22:08.635Z,4.72
2023-03-17T12:24:35.284Z,8.23
2023-03-17T12:27:02.006Z,7.15
2023-03-17T12:29:43.450Z,10.30
2023-03-17T12:32:26.675Z,5.68
2023-03-17T12:34:58.800Z,7.22
2023-03-17T12:37:27.803Z,7.72
2023-03-17T12:39:56.223Z,6.55
2023-03-17T12:42:35.935Z,11.43
2023-03-17T12:45:25.202Z,11.43
2023-03-17T12:48:03.265Z,10.13
2023-03-17T12:51:06.444Z,9.35
2023-03-17T12:53:46.583Z,12.55
2023-03-17T12:56:29.161Z,8.43
2023-03-17T12:59:07.552Z,5.30
2023-03-17T13:01:38.140Z,6.97
2023-03-17T13:04:17.534Z,9.70
2023-03-17T13:06:46.966Z,6.53
2023-03-17T13:09:31.950Z,10.95
2023-03-17T13:12:01.345Z,7.70
2023-03-17T13:14:43.761Z,6.40
2023-03-17T13:17:17.097Z,9.90
2023-03-17T13:20:08.595Z,7.00
2023-03-17T13:22:38.551Z,9.15
2023-03-17T13:25:30.453Z,14.88
2023-03-17T13:28:18.277Z,16.40
2023-03-17T13:31:10.473Z,10.63
2023-03-17T13:33:43.477Z,11.98
2023-03-17T13:36:27.637Z,18.05
2023-03-17T13:39:21.742Z,23.92
2023-03-17T13:41:55.810Z,18.90
2023-03-17T13:44:48.149Z,15.05
2023-03-17T13:47:36.104Z,17.15
2023-03-17T13:50:30.796Z,18.13
2023-03-17T13:53:10.537Z,18.05
2023-03-17T13:56:04.693Z,15.15
2023-03-17T13:58:35.541Z,25.70
2023-03-17T14:01:04.743Z,22.60
2023-03-17T14:03:49.236Z,16.08
2023-03-17T14:06:18.897Z,9.82
2023-03-17T14:08:48.565Z,11.95
2023-03-17T14:11:40.618Z,12.88
2023-03-17T14:14:32.101Z,17.25
2023-03-17T14:17:06.176Z,20.17
2023-03-17T14:19:33.465Z,18.70
2023-03-17T14:22:33.714Z,11.43
2023-03-17T14:25:02.015Z,13.05
2023-03-17T14:27:30.646Z,9.48
2023-03-17T14:30:05.818Z,13.35
2023-03-17T14:32:32.573Z,13.05
2023-03-17T14:34:59.487Z,10.23
2023-03-17T14:37:27.662Z,13.20
2023-03-17T14:39:57.674Z,9.05
2023-03-17T14:42:30.708Z,9.70
2023-03-17T14:45:06.712Z,15.93
2023-03-17T14:47:41.277Z,18.15
2023-03-17T14:50:23.641Z,23.13
2023-03-17T14:52:50.758Z,13.48
2023-03-17T14:55:17.981Z,14.48
2023-03-17T14:57:49.247Z,9.98
2023-03-17T15:00:38.161Z,10.43
2023-03-17T15:03:20.746Z,11.63
2023-03-17T15:05:49.296Z,16.00
2023-03-17T15:08:42.868Z,22.08
2023-03-17T15:11:18.011Z,17.65
2023-03-17T15:13:45.478Z,14.07
2023-03-17T15:16:23.408Z,19.40
2023-03-17T15:18:55.822Z,23.38
2023-03-17T15:21:42.892Z,26.70
2023-03-17T15:24:41.011Z,25.45
2023-03-17T15:27:18.049Z,28.10
2023-03-17T15:29:45.774Z,12.00
2023-03-17T15:32:23.594Z,15.77
2023-03-17T15:34:52.799Z,19.92
2023-03-17T15:37:32.942Z,18.35
2023-03-17T15:40:01.774Z,20.92
2023-03-17T15:42:31.188Z,22.63
2023-03-17T15:45:00.230Z,18.27
2023-03-17T15:47:29.086Z,16.85
2023-03-17T15:49:59.076Z,11.00
2023-03-17T15:52:27.401Z,11.25
2023-03-17T15:54:58.697Z,10.75
2023-03-17T15:57:26.391Z,13.55
2023-03-17T15:59:53.150Z,13.23
2023-03-17T16:02:30.718Z,10.52
2023-03-17T16:04:58.624Z,11.98
2023-03-17T16:07:26.040Z,11.77
2023-03-17T16:09:52.960Z,12.68
2023-03-17T16:12:19.920Z,14.68
2023-03-17T16:14:47.412Z,14.23
2023-03-17T16:17:19.122Z,10.60
2023-03-17T16:19:45.975Z,12.10
2023-03-17T16:22:29.056Z,11.25
2023-03-17T16:24:55.694Z,12.40
2023-03-17T16:27:22.509Z,15.18
2023-03-17T16:29:49.287Z,15.38
2023-03-17T16:32:16.026Z,13.13
2023-03-17T16:34:42.870Z,13.88
2023-03-17T16:37:15.336Z,20.10
2023-03-17T16:39:43.365Z,13.43
2023-03-17T16:42:32.285Z,13.60
2023-03-17T16:44:59.214Z,15.98
2023-03-17T16:47:26.037Z,21.50
2023-03-17T16:49:52.661Z,13.77
2023-03-17T16:52:19.261Z,17.02
2023-03-17T16:54:46.026Z,14.10
2023-03-17T16:57:13.090Z,10.27
2023-03-17T16:59:39.798Z,13.18
2023-03-17T17:02:15.674Z,12.02
2023-03-17T17:04:43.211Z,12.90
2023-03-17T17:07:12.687Z,12.90
2023-03-17T17:09:39.606Z,15.77
2023-03-17T17:12:06.426Z,16.27
2023-03-17T17:14:33.202Z,17.98
2023-03-17T17:17:01.012Z,19.40
2023-03-17T17:19:27.751Z,15.90
2023-03-17T17:21:54.514Z,17.38
2023-03-17T17:24:21.459Z,18.48
2023-03-17T17:26:48.247Z,13.57
2023-03-17T17:29:14.993Z,13.55
2023-03-17T17:31:41.953Z,14.32
2023-03-17T17:34:13.660Z,13.15
2023-03-17T17:36:40.860Z,11.88
2023-03-17T17:39:07.541Z,11.80
2023-03-17T17:41:34.497Z,11.13
2023-03-17T17:44:01.173Z,12.00
2023-03-17T17:46:27.952Z,10.70
2023-03-17T17:48:55.146Z,11.80
2023-03-17T17:51:22.005Z,12.65
2023-03-17T17:53:48.705Z,16.35
2023-03-17T17:56:17.013Z,12.93
2023-03-17T17:58:44.420Z,14.80
2023-03-17T18:01:13.642Z,10.57
2023-03-17T18:03:43.392Z,12.98
2023-03-17T18:06:10.858Z,9.63
2023-03-17T18:08:37.486Z,12.90
2023-03-17T18:11:04.621Z,11.27
2023-03-17T18:13:31.306Z,14.68
2023-03-17T18:15:58.259Z,9.05
2023-03-17T18:18:24.972Z,11.90
2023-03-17T18:20:52.722Z,11.20
2023-03-17T18:23:20.388Z,11.18
2023-03-17T18:25:47.152Z,12.05
2023-03-17T18:28:13.808Z,10.13
2023-03-17T18:30:40.801Z,12.68
2023-03-17T18:33:18.568Z,12.10
2023-03-17T18:35:46.840Z,10.88
2023-03-17T18:38:13.617Z,13.27
2023-03-17T18:40:41.668Z,13.93
2023-03-17T18:43:08.601Z,15.50
2023-03-17T18:45:35.387Z,11.43
2023-03-17T18:48:02.079Z,12.52
2023-03-17T18:50:28.820Z,12.32
2023-03-17T18:52:56.184Z,11.73
2023-03-17T18:55:22.977Z,15.00
2023-03-17T18:57:49.848Z,10.35
2023-03-17T19:00:18.726Z,8.93
2023-03-17T19:02:45.854Z,8.05
2023-03-17T19:05:13.056Z,9.25
2023-03-17T19:07:40.818Z,9.05
2023-03-17T19:10:09.111Z,10.02
2023-03-17T19:12:36.435Z,14.68
2023-03-17T19:15:04.289Z,9.88
2023-03-17T19:17:31.489Z,12.73
2023-03-17T19:19:58.370Z,12.10
2023-03-17T19:22:25.103Z,10.80
2023-03-17T19:24:53.417Z,11.75
2023-03-17T19:27:20.077Z,11.35
2023-03-17T19:29:46.917Z,11.35
2023-03-17T19:32:14.199Z,13.95
2023-03-17T19:34:41.412Z,10.25
2023-03-17T19:37:08.426Z,13.65
2023-03-17T19:39:35.388Z,11.15
2023-03-17T19:42:02.826Z,11.93
2023-03-17T19:44:29.574Z,12.43
2023-03-17T19:46:56.254Z,11.43
2023-03-17T19:49:23.028Z,11.85
2023-03-17T19:51:51.036Z,15.82
2023-03-17T19:54:18.966Z,10.55
2023-03-17T19:56:46.046Z,12.48
2023-03-17T19:59:15.156Z,12.75
2023-03-17T20:01:42.835Z,11.00
2023-03-17T20:04:11.881Z,8.63
2023-03-17T20:06:39.382Z,12.10
2023-03-17T20:09:09.159Z,13.43
2023-03-17T20:11:36.355Z,14.52
2023-03-17T20:14:03.912Z,10.43
2023-03-17T20:16:33.753Z,11.52
2023-03-17T20:19:01.483Z,11.25
2023-03-17T20:21:28.387Z,11.35
2023-03-17T20:23:58.066Z,12.27
2023-03-17T20:26:24.903Z,11.68
2023-03-17T20:28:51.860Z,12.60
2023-03-17T20:31:19.466Z,11.23
2023-03-17T20:33:46.247Z,10.93
2023-03-17T20:36:14.147Z,10.52
2023-03-17T20:38:43.137Z,9.32
2023-03-17T20:41:12.836Z,12.35
2023-03-17T20:43:40.414Z,12.25
2023-03-17T20:46:09.282Z,14.10
2023-03-17T20:48:37.340Z,13.77
2023-03-17T20:51:06.489Z,15.65
2023-03-17T20:53:34.538Z,11.85
2023-03-17T20:56:01.228Z,14.27
2023-03-17T20:58:27.959Z,11.88
2023-03-17T21:00:58.574Z,12.73
2023-03-17T21:03:25.418Z,16.95
2023-03-17T21:05:53.635Z,13.85
2023-03-17T21:08:20.581Z,10.27
2023-03-17T21:10:47.997Z,11.75
2023-03-17T21:13:14.882Z,18.70
2023-03-17T21:15:42.482Z,13.20
2023-03-17T21:18:09.693Z,15.07
2023-03-17T21:20:37.266Z,15.38
2023-03-17T21:23:08.016Z,14.77
2023-03-17T21:25:38.694Z,13.77
2023-03-17T21:28:06.367Z,14.48
2023-03-17T21:30:34.280Z,19.67
2023-03-17T21:33:01.657Z,14.73
2023-03-17T21:35:30.837Z,16.35
2023-03-17T21:37:57.955Z,19.27
2023-03-17T21:40:26.229Z,17.42
2023-03-17T21:42:53.527Z,21.85
2023-03-17T21:45:20.283Z,17.02
2023-03-17T21:47:47.571Z,14.45
2023-03-17T21:50:16.418Z,17.63
2023-03-17T21:52:44.871Z,18.52
2023-03-17T21:55:11.980Z,19.23
2023-03-17T21:57:38.987Z,18.40
2023-03-17T22:00:08.473Z,18.60
2023-03-17T22:02:35.588Z,17.00
2023-03-17T22:05:02.750Z,18.75
2023-03-17T22:07:29.432Z,17.27
2023-03-17T22:09:57.937Z,20.13
2023-03-17T22:12:24.877Z,15.10
2023-03-17T22:14:53.769Z,19.83
2023-03-17T22:17:20.607Z,14.40
2023-03-17T22:19:48.782Z,17.70
2023-03-17T22:22:15.513Z,16.77
2023-03-17T22:24:42.905Z,15.15
2023-03-17T22:27:09.575Z,15.23
2023-03-17T22:29:36.982Z,16.48
2023-03-17T22:32:03.944Z,12.65
2023-03-17T22:34:30.993Z,17.88
2023-03-17T22:36:57.673Z,17.17
2023-03-17T22:39:24.342Z,13.95
2023-03-17T22:41:51.260Z,17.42
2023-03-17T22:44:18.057Z,18.80
2023-03-17T22:46:44.823Z,15.68
2023-03-17T22:49:11.569Z,19.00
2023-03-17T22:51:41.043Z,20.50
2023-03-17T22:54:08.737Z,15.57
2023-03-17T22:56:35.362Z,12.63
2023-03-17T22:59:02.176Z,12.52
2023-03-17T23:01:29.006Z,13.88
2023-03-17T23:03:56.042Z,15.68
2023-03-17T23:06:23.211Z,20.73
2023-03-17T23:08:50.060Z,13.73
2023-03-17T23:11:19.526Z,16.08
2023-03-17T23:13:47.490Z,15.68
2023-03-17T23:16:14.913Z,19.27
2023-03-17T23:18:42.534Z,17.67
2023-03-17T23:21:19.146Z,18.38
2023-03-17T23:23:45.867Z,18.15
2023-03-17T23:26:12.805Z,20.00
2023-03-17T23:28:39.882Z,17.73
2023-03-17T23:31:07.040Z,19.05
2023-03-17T23:33:34.056Z,17.88
2023-03-17T23:36:00.738Z,17.63
2023-03-17T23:38:27.854Z,15.15
2023-03-17T23:40:56.821Z,20.90
2023-03-17T23:43:23.832Z,17.45
2023-03-17T23:45:53.130Z,13.27
2023-03-17T23:48:20.817Z,17.85
2023-03-17T23:50:50.418Z,23.17
